createdAt,value
2018-06-16T00:00:17.092Z,7.17
2018-06-16T00:02:46.253Z,8.10
2018-06-16T00:05:15.429Z,10.93
2018-06-16T00:07:44.648Z,8.03
2018-06-16T00:10:28.051Z,7.77
2018-06-16T00:12:58.913Z,7.63
2018-06-16T00:15:28.105Z,7.67
2018-06-16T00:17:57.318Z,7.17
2018-06-16T00:20:26.517Z,7.23
2018-06-16T00:22:55.674Z,9.07
2018-06-16T00:25:24.910Z,7.30
2018-06-16T00:27:54.051Z,8.23
2018-06-16T00:30:23.188Z,11.60
2018-06-16T00:32:52.381Z,9.60
2018-06-16T00:35:21.501Z,7.92
2018-06-16T00:37:50.602Z,8.10
2018-06-16T00:40:20.201Z,10.30
2018-06-16T00:42:49.415Z,7.90
2018-06-16T00:45:18.938Z,7.87
2018-06-16T00:47:48.098Z,8.00
2018-06-16T00:50:17.206Z,9.75
2018-06-16T00:52:46.307Z,7.77
2018-06-16T00:55:15.475Z,7.85
2018-06-16T00:57:48.995Z,15.57
2018-06-16T01:00:19.591Z,7.37
2018-06-16T01:02:49.104Z,11.47
2018-06-16T01:05:18.300Z,11.30
2018-06-16T01:07:48.350Z,8.00
2018-06-16T01:10:17.446Z,7.75
2018-06-16T01:12:46.652Z,12.23
2018-06-16T01:15:15.739Z,11.65
2018-06-16T01:17:44.904Z,8.17
2018-06-16T01:20:14.221Z,8.00
2018-06-16T01:22:43.327Z,7.53
2018-06-16T01:25:12.441Z,8.13
2018-06-16T01:27:41.625Z,8.20
2018-06-16T01:30:10.794Z,7.97
2018-06-16T01:32:39.910Z,11.23
2018-06-16T01:35:09.035Z,8.33
2018-06-16T01:37:38.171Z,7.93
2018-06-16T01:40:07.305Z,9.00
2018-06-16T01:42:36.488Z,9.30
2018-06-16T01:45:05.681Z,8.20
2018-06-16T01:47:34.978Z,8.50
2018-06-16T01:50:04.092Z,8.90
2018-06-16T01:52:33.494Z,8.53
2018-06-16T01:55:02.915Z,8.00
2018-06-16T01:57:32.091Z,8.67
2018-06-16T02:00:01.342Z,10.10
2018-06-16T02:02:30.475Z,9.80
2018-06-16T02:04:59.699Z,8.60
2018-06-16T02:07:28.975Z,8.80
2018-06-16T02:09:58.142Z,9.07
2018-06-16T02:12:27.282Z,8.67
2018-06-16T02:14:56.377Z,10.70
2018-06-16T02:17:25.501Z,9.47
2018-06-16T02:19:54.897Z,8.57
2018-06-16T02:22:24.053Z,8.03
2018-06-16T02:24:53.273Z,8.17
2018-06-16T02:27:22.393Z,7.90
2018-06-16T02:29:51.514Z,8.00
2018-06-16T02:32:20.642Z,8.83
2018-06-16T02:34:49.969Z,8.83
2018-06-16T02:37:19.167Z,12.15
2018-06-16T02:39:48.297Z,10.07
2018-06-16T02:42:17.502Z,8.00
2018-06-16T02:44:46.634Z,8.43
2018-06-16T02:47:15.880Z,7.70
2018-06-16T02:49:45.062Z,7.83
2018-06-16T02:52:14.280Z,9.80
2018-06-16T02:54:43.866Z,8.20
2018-06-16T02:57:12.997Z,8.30
2018-06-16T02:59:42.256Z,9.70
2018-06-16T03:02:11.379Z,7.93
2018-06-16T03:04:40.494Z,7.70
2018-06-16T03:07:09.644Z,7.10
2018-06-16T03:09:39.658Z,7.47
2018-06-16T03:12:09.082Z,8.00
2018-06-16T03:14:38.200Z,7.80
2018-06-16T03:17:07.327Z,8.07
2018-06-16T03:19:36.457Z,8.13
2018-06-16T03:22:06.404Z,9.08
2018-06-16T03:24:36.150Z,8.30
2018-06-16T03:27:05.421Z,8.43
2018-06-16T03:29:34.516Z,8.30
2018-06-16T03:32:03.645Z,7.77
2018-06-16T03:34:32.907Z,7.87
2018-06-16T03:37:02.037Z,7.90
2018-06-16T03:39:31.257Z,7.93
2018-06-16T03:42:00.378Z,9.00
2018-06-16T03:44:29.530Z,14.70
2018-06-16T03:46:58.662Z,12.03
2018-06-16T03:49:27.918Z,9.00
2018-06-16T03:51:57.065Z,8.67
2018-06-16T03:54:26.136Z,7.80
2018-06-16T03:56:55.378Z,8.23
2018-06-16T03:59:24.509Z,9.37
2018-06-16T04:01:53.703Z,7.93
2018-06-16T04:04:22.801Z,9.08
2018-06-16T04:06:51.883Z,9.10
2018-06-16T04:09:21.017Z,8.90
2018-06-16T04:11:50.096Z,8.50
2018-06-16T04:14:19.614Z,8.90
2018-06-16T04:16:48.814Z,8.33
2018-06-16T04:19:17.990Z,13.93
2018-06-16T04:21:47.174Z,10.77
2018-06-16T04:24:16.276Z,9.70
2018-06-16T04:26:45.548Z,7.87
2018-06-16T04:29:14.767Z,8.53
2018-06-16T04:31:43.937Z,14.03
2018-06-16T04:34:13.102Z,13.60
2018-06-16T04:36:42.214Z,12.20
2018-06-16T04:39:11.392Z,9.30
2018-06-16T04:41:40.489Z,14.70
2018-06-16T04:44:09.592Z,13.10
2018-06-16T04:46:38.686Z,8.53
2018-06-16T04:49:08.185Z,7.90
2018-06-16T04:51:37.319Z,9.80
2018-06-16T04:54:06.458Z,11.23
2018-06-16T04:56:35.590Z,10.70
2018-06-16T04:59:04.742Z,8.90
2018-06-16T05:01:34.671Z,12.50
2018-06-16T05:04:03.889Z,11.93
2018-06-16T05:06:33.023Z,14.17
2018-06-16T05:09:02.807Z,11.20
2018-06-16T05:11:31.973Z,8.67
2018-06-16T05:14:01.414Z,10.23
2018-06-16T05:16:30.638Z,10.53
2018-06-16T05:19:00.090Z,11.27
2018-06-16T05:21:29.234Z,11.20
2018-06-16T05:23:58.366Z,9.10
2018-06-16T05:26:27.606Z,14.73
2018-06-16T05:28:56.692Z,9.93
2018-06-16T05:31:25.861Z,10.57
2018-06-16T05:33:55.421Z,16.50
2018-06-16T05:36:24.556Z,9.83
2018-06-16T05:38:53.743Z,20.33
2018-06-16T05:41:22.948Z,10.05
2018-06-16T05:43:52.074Z,12.40
2018-06-16T05:46:21.217Z,16.37
2018-06-16T05:48:50.430Z,12.50
2018-06-16T05:51:19.469Z,9.73
2018-06-16T05:53:48.702Z,12.60
2018-06-16T05:56:17.761Z,10.27
2018-06-16T05:58:46.916Z,9.70
2018-06-16T06:01:16.546Z,10.78
2018-06-16T06:03:45.659Z,11.50
2018-06-16T06:06:14.757Z,13.50
2018-06-16T06:08:43.876Z,26.90
2018-06-16T06:11:12.974Z,10.48
2018-06-16T06:13:42.094Z,10.10
2018-06-16T06:16:11.578Z,9.80
2018-06-16T06:18:40.719Z,11.20
2018-06-16T06:21:09.834Z,13.53
2018-06-16T06:23:40.959Z,10.00
2018-06-16T06:26:10.176Z,13.60
2018-06-16T06:28:39.281Z,11.10
2018-06-16T06:31:08.402Z,16.37
2018-06-16T06:33:37.597Z,12.40
2018-06-16T06:36:06.793Z,11.57
2018-06-16T06:38:35.964Z,15.40
2018-06-16T06:41:05.070Z,10.73
2018-06-16T06:43:34.255Z,15.60
2018-06-16T06:46:03.346Z,13.58
2018-06-16T06:48:32.520Z,12.47
2018-06-16T06:51:01.654Z,14.53
2018-06-16T06:53:30.972Z,15.53
2018-06-16T06:56:00.317Z,20.10
2018-06-16T06:58:29.469Z,14.63
2018-06-16T07:00:58.643Z,13.50
2018-06-16T07:03:27.891Z,12.13
2018-06-16T07:05:57.577Z,13.57
2018-06-16T07:08:27.595Z,15.90
2018-06-16T07:10:56.729Z,12.10
2018-06-16T07:13:25.756Z,14.23
2018-06-16T07:15:54.908Z,12.93
2018-06-16T07:18:24.671Z,12.27
2018-06-16T07:20:54.023Z,10.97
2018-06-16T07:23:23.689Z,11.33
2018-06-16T07:25:53.671Z,14.77
2018-06-16T07:28:22.864Z,11.43
2018-06-16T07:30:52.069Z,12.67
2018-06-16T07:33:21.279Z,14.37
2018-06-16T07:35:50.671Z,13.20
2018-06-16T07:38:19.767Z,11.15
2018-06-16T07:40:49.081Z,12.10
2018-06-16T07:43:18.392Z,12.30
2018-06-16T07:45:47.506Z,12.23
2018-06-16T07:48:16.893Z,11.90
2018-06-16T07:50:45.988Z,12.37
2018-06-16T07:53:15.493Z,11.80
2018-06-16T07:55:44.966Z,12.93
2018-06-16T07:58:14.199Z,16.65
2018-06-16T08:00:43.761Z,12.27
2018-06-16T08:03:12.865Z,10.95
2018-06-16T08:05:42.491Z,11.40
2018-06-16T08:08:11.746Z,12.03
2018-06-16T08:10:40.789Z,12.17
2018-06-16T08:13:09.995Z,11.47
2018-06-16T08:15:39.162Z,11.83
2018-06-16T08:18:08.429Z,12.37
2018-06-16T08:20:37.501Z,11.80
2018-06-16T08:23:06.596Z,13.03
2018-06-16T08:25:35.875Z,14.50
2018-06-16T08:28:05.204Z,11.30
2018-06-16T08:30:34.401Z,14.93
2018-06-16T08:33:04.094Z,13.97
2018-06-16T08:35:33.355Z,12.23
2018-06-16T08:38:04.325Z,10.73
2018-06-16T08:40:33.565Z,11.27
2018-06-16T08:43:03.327Z,12.07
2018-06-16T08:45:32.676Z,15.00
2018-06-16T08:48:02.630Z,12.07
2018-06-16T08:50:32.053Z,12.43
2018-06-16T08:53:01.505Z,10.80
2018-06-16T08:55:31.151Z,12.13
2018-06-16T08:58:00.434Z,13.03
2018-06-16T09:00:31.105Z,11.20
2018-06-16T09:03:00.342Z,11.00
2018-06-16T09:05:29.861Z,9.97
2018-06-16T09:07:59.010Z,12.13
2018-06-16T09:10:28.299Z,11.43
2018-06-16T09:12:57.474Z,9.87
2018-06-16T09:15:26.670Z,9.10
2018-06-16T09:17:55.899Z,9.60
2018-06-16T09:20:25.045Z,16.50
2018-06-16T09:22:54.308Z,8.43
2018-06-16T09:25:24.061Z,10.07
2018-06-16T09:27:53.452Z,9.60
2018-06-16T09:30:22.609Z,10.40
2018-06-16T09:32:52.318Z,9.27
2018-06-16T09:35:21.561Z,13.70
2018-06-16T09:37:51.096Z,23.77
2018-06-16T09:40:20.177Z,11.57
2018-06-16T09:42:49.377Z,9.43
2018-06-16T09:45:18.506Z,10.50
2018-06-16T09:47:47.670Z,10.80
2018-06-16T09:50:16.777Z,9.93
2018-06-16T09:52:45.969Z,9.80
2018-06-16T09:55:15.540Z,9.15
2018-06-16T09:57:45.510Z,9.27
2018-06-16T10:00:19.842Z,8.57
2018-06-16T10:02:48.971Z,8.67
2018-06-16T10:05:18.188Z,8.58
2018-06-16T10:07:47.427Z,9.27
2018-06-16T10:10:16.768Z,9.30
2018-06-16T10:12:45.905Z,8.73
2018-06-16T10:15:15.075Z,8.67
2018-06-16T10:17:45.095Z,9.13
2018-06-16T10:20:14.306Z,8.18
2018-06-16T10:22:50.065Z,9.57
2018-06-16T10:25:19.283Z,9.85
2018-06-16T10:27:48.481Z,9.37
2018-06-16T10:30:23.772Z,8.05
2018-06-16T10:32:52.986Z,13.37
2018-06-16T10:35:23.167Z,7.53
2018-06-16T10:37:52.658Z,7.90
2018-06-16T10:40:27.984Z,7.70
2018-06-16T10:42:58.456Z,8.37
2018-06-16T10:45:28.893Z,8.57
2018-06-16T10:47:58.626Z,7.70
2018-06-16T10:50:27.893Z,8.05
2018-06-16T10:52:57.158Z,9.20
2018-06-16T10:55:28.835Z,7.27
2018-06-16T10:57:58.007Z,9.00
2018-06-16T11:00:28.855Z,8.00
2018-06-16T11:02:57.995Z,7.43
2018-06-16T11:05:27.202Z,11.13
2018-06-16T11:07:56.849Z,7.10
2018-06-16T11:10:26.272Z,7.50
2018-06-16T11:12:56.491Z,8.10
2018-06-16T11:15:26.226Z,8.10
2018-06-16T11:17:55.947Z,8.13
2018-06-16T11:20:25.189Z,6.07
2018-06-16T11:22:54.723Z,6.40
2018-06-16T11:25:24.039Z,6.47
2018-06-16T11:27:53.663Z,5.70
2018-06-16T11:30:23.164Z,6.92
2018-06-16T11:32:52.579Z,5.33
2018-06-16T11:35:21.864Z,5.42
2018-06-16T11:37:51.370Z,5.50
2018-06-16T11:40:20.476Z,5.87
2018-06-16T11:42:50.604Z,5.00
2018-06-16T11:45:20.639Z,6.17
2018-06-16T11:47:50.546Z,5.77
2018-06-16T11:50:19.773Z,5.53
2018-06-16T11:52:49.098Z,5.60
2018-06-16T11:55:18.308Z,5.90
2018-06-16T11:57:47.413Z,9.83
2018-06-16T12:00:16.513Z,6.40
2018-06-16T12:02:45.721Z,6.20
2018-06-16T12:05:14.904Z,5.43
2018-06-16T12:07:44.723Z,5.73
2018-06-16T12:10:14.039Z,6.87
2018-06-16T12:12:43.139Z,5.57
2018-06-16T12:15:13.388Z,8.20
2018-06-16T12:17:42.518Z,4.77
2018-06-16T12:20:12.503Z,5.10
2018-06-16T12:22:41.735Z,4.73
2018-06-16T12:25:11.667Z,4.92
2018-06-16T12:27:40.755Z,4.07
2018-06-16T12:30:12.187Z,4.88
2018-06-16T12:32:41.306Z,8.67
2018-06-16T12:35:11.542Z,4.70
2018-06-16T12:37:40.738Z,5.23
2018-06-16T12:40:09.924Z,6.00
2018-06-16T12:42:39.824Z,7.40
2018-06-16T12:45:09.574Z,5.00
2018-06-16T12:47:39.549Z,4.57
2018-06-16T12:50:09.786Z,4.23
2018-06-16T12:52:39.069Z,5.63
2018-06-16T12:55:08.366Z,5.23
2018-06-16T12:57:38.371Z,4.30
2018-06-16T13:00:08.203Z,5.20
2018-06-16T13:02:37.569Z,7.70
2018-06-16T13:05:08.436Z,4.00
2018-06-16T13:07:37.809Z,6.80
2018-06-16T13:10:06.960Z,4.50
2018-06-16T13:12:36.246Z,4.57
2018-06-16T13:15:06.653Z,4.47
2018-06-16T13:17:37.380Z,5.97
2018-06-16T13:20:06.586Z,4.00
2018-06-16T13:22:35.878Z,4.63
2018-06-16T13:25:06.055Z,4.30
2018-06-16T13:27:35.382Z,7.70
2018-06-16T13:30:04.541Z,4.30
2018-06-16T13:32:35.134Z,8.50
2018-06-16T13:35:04.324Z,4.57
2018-06-16T13:37:33.431Z,4.47
2018-06-16T13:40:02.553Z,6.23
2018-06-16T13:42:31.745Z,5.50
2018-06-16T13:45:02.464Z,3.93
2018-06-16T13:47:31.644Z,7.03
2018-06-16T13:50:00.901Z,4.00
2018-06-16T13:52:30.470Z,4.35
2018-06-16T13:54:59.758Z,4.30
2018-06-16T13:57:29.405Z,3.93
2018-06-16T13:59:58.574Z,5.87
2018-06-16T14:02:28.121Z,3.67
2018-06-16T14:04:58.190Z,4.03
2018-06-16T14:07:27.385Z,3.92
2018-06-16T14:09:57.597Z,4.30
2018-06-16T14:12:26.818Z,4.97
2018-06-16T14:14:56.428Z,4.40
2018-06-16T14:17:25.623Z,4.43
2018-06-16T14:19:58.075Z,4.10
2018-06-16T14:22:29.053Z,4.50
2018-06-16T14:24:58.442Z,3.80
2018-06-16T14:27:28.966Z,3.60
2018-06-16T14:29:59.268Z,4.03
2018-06-16T14:32:29.311Z,4.70
2018-06-16T14:34:58.693Z,4.20
2018-06-16T14:37:28.014Z,4.03
2018-06-16T14:39:57.093Z,6.90
2018-06-16T14:42:26.296Z,3.67
2018-06-16T14:44:55.802Z,3.40
2018-06-16T14:47:25.143Z,3.20
2018-06-16T14:49:55.006Z,3.10
2018-06-16T14:52:24.212Z,3.00
2018-06-16T14:54:53.501Z,5.03
2018-06-16T14:57:22.710Z,2.90
2018-06-16T14:59:51.854Z,3.53
2018-06-16T15:02:21.098Z,3.20
2018-06-16T15:04:50.607Z,2.80
2018-06-16T15:07:20.107Z,3.03
2018-06-16T15:09:50.324Z,3.17
2018-06-16T15:12:19.769Z,2.87
2018-06-16T15:14:49.654Z,3.10
2018-06-16T15:17:18.867Z,2.98
2018-06-16T15:19:48.459Z,2.87
2018-06-16T15:22:17.667Z,2.98
2018-06-16T15:24:46.858Z,3.77
2018-06-16T15:27:16.263Z,2.83
2018-06-16T15:29:45.657Z,2.57
2018-06-16T15:32:14.788Z,2.57
2018-06-16T15:34:43.975Z,2.37
2018-06-16T15:37:13.453Z,2.90
2018-06-16T15:39:42.573Z,5.40
2018-06-16T15:42:11.927Z,3.33
2018-06-16T15:44:41.055Z,2.50
2018-06-16T15:47:10.654Z,2.70
2018-06-16T15:49:39.863Z,4.55
2018-06-16T15:52:09.002Z,2.50
2018-06-16T15:54:38.163Z,2.60
2018-06-16T15:57:07.320Z,3.70
2018-06-16T15:59:36.955Z,4.10
2018-06-16T16:02:06.452Z,5.15
2018-06-16T16:04:35.597Z,7.67
2018-06-16T16:07:05.777Z,2.60
2018-06-16T16:09:34.941Z,3.17
2018-06-16T16:12:05.303Z,2.60
2018-06-16T16:14:34.493Z,2.50
2018-06-16T16:17:04.211Z,2.43
2018-06-16T16:19:33.431Z,4.03
2018-06-16T16:22:02.696Z,2.43
2018-06-16T16:24:31.825Z,3.37
2018-06-16T16:27:01.086Z,2.80
2018-06-16T16:29:30.289Z,3.07
2018-06-16T16:31:59.567Z,3.57
2018-06-16T16:34:28.812Z,4.40
2018-06-16T16:36:58.472Z,2.60
2018-06-16T16:39:27.702Z,4.23
2018-06-16T16:41:56.997Z,3.77
2018-06-16T16:44:26.343Z,6.50
2018-06-16T16:46:55.598Z,2.60
2018-06-16T16:49:24.797Z,4.37
2018-06-16T16:51:54.874Z,2.87
2018-06-16T16:54:24.016Z,2.80
2018-06-16T16:56:53.693Z,2.60
2018-06-16T16:59:22.804Z,2.60
2018-06-16T17:01:52.196Z,4.50
2018-06-16T17:04:21.430Z,3.30
2018-06-16T17:06:50.590Z,3.30
2018-06-16T17:09:19.741Z,2.90
2018-06-16T17:11:48.877Z,3.83
2018-06-16T17:14:18.153Z,3.05
2018-06-16T17:16:47.328Z,3.00
2018-06-16T17:19:16.621Z,6.00
2018-06-16T17:21:45.716Z,3.97
2018-06-16T17:24:14.958Z,3.20
2018-06-16T17:26:44.102Z,3.10
2018-06-16T17:29:14.531Z,3.75
2018-06-16T17:31:43.823Z,3.00
2018-06-16T17:34:13.098Z,3.05
2018-06-16T17:36:42.320Z,4.00
2018-06-16T17:39:11.783Z,3.00
2018-06-16T17:41:41.535Z,3.23
2018-06-16T17:44:10.748Z,3.77
2018-06-16T17:46:40.034Z,4.27
2018-06-16T17:49:09.347Z,3.40
2018-06-16T17:51:38.523Z,3.63
2018-06-16T17:54:07.896Z,4.62
2018-06-16T17:56:37.045Z,3.57
2018-06-16T17:59:06.469Z,3.77
2018-06-16T18:01:35.619Z,3.80
2018-06-16T18:04:04.878Z,3.30
2018-06-16T18:06:34.359Z,3.77
2018-06-16T18:09:05.203Z,4.33
2018-06-16T18:11:34.409Z,3.37
2018-06-16T18:14:03.533Z,4.00
2018-06-16T18:16:32.772Z,10.90
2018-06-16T18:19:02.199Z,3.27
2018-06-16T18:21:31.389Z,5.13
2018-06-16T18:24:00.557Z,3.73
2018-06-16T18:26:30.334Z,5.30
2018-06-16T18:28:59.469Z,6.07
2018-06-16T18:31:28.682Z,5.87
2018-06-16T18:33:58.776Z,3.80
2018-06-16T18:36:27.991Z,7.83
2018-06-16T18:38:57.201Z,4.20
2018-06-16T18:41:26.397Z,4.13
2018-06-16T18:43:55.918Z,4.90
2018-06-16T18:46:25.045Z,4.53
2018-06-16T18:48:54.241Z,4.07
2018-06-16T18:51:23.491Z,5.25
2018-06-16T18:53:52.645Z,4.73
2018-06-16T18:56:21.945Z,7.78
2018-06-16T18:58:51.069Z,4.20
2018-06-16T19:01:20.218Z,5.17
2018-06-16T19:03:49.301Z,5.60
2018-06-16T19:06:18.582Z,4.70
2018-06-16T19:08:47.681Z,5.40
2018-06-16T19:11:16.818Z,4.50
2018-06-16T19:13:45.962Z,4.43
2018-06-16T19:16:15.220Z,7.83
2018-06-16T19:18:44.390Z,6.00
2018-06-16T19:21:13.464Z,13.67
2018-06-16T19:23:42.634Z,4.13
2018-06-16T19:26:12.149Z,3.87
2018-06-16T19:28:41.477Z,4.17
2018-06-16T19:31:10.644Z,5.00
2018-06-16T19:33:39.824Z,6.62
2018-06-16T19:36:08.950Z,3.60
2018-06-16T19:38:38.151Z,8.73
2018-06-16T19:41:07.363Z,5.57
2018-06-16T19:46:54.230Z,5.20
2018-06-16T19:49:23.620Z,3.77
2018-06-16T19:51:52.746Z,11.90
2018-06-16T19:54:22.001Z,5.70
2018-06-16T19:56:51.165Z,4.30
2018-06-16T19:59:20.874Z,3.52
2018-06-16T20:01:50.105Z,6.03
2018-06-16T20:04:19.532Z,4.67
2018-06-16T20:06:48.775Z,8.50
2018-06-16T20:09:17.902Z,4.40
2018-06-16T20:11:47.155Z,4.37
2018-06-16T20:14:16.309Z,4.58
2018-06-16T20:16:45.443Z,4.47
2018-06-16T20:19:15.062Z,6.15
2018-06-16T20:21:44.261Z,6.63
2018-06-16T20:24:13.418Z,4.23
2018-06-16T20:26:42.619Z,4.10
2018-06-16T20:29:11.762Z,4.00
2018-06-16T20:31:40.858Z,4.13
2018-06-16T20:34:10.390Z,4.10
2018-06-16T20:36:40.152Z,6.00
2018-06-16T20:39:09.686Z,5.17
2018-06-16T20:41:38.903Z,6.90
2018-06-16T20:44:08.094Z,4.90
2018-06-16T20:46:38.027Z,5.30
2018-06-16T20:49:07.188Z,5.67
2018-06-16T20:51:36.366Z,4.13
2018-06-16T20:54:05.810Z,4.40
2018-06-16T20:56:34.963Z,4.57
2018-06-16T20:59:04.105Z,5.30
2018-06-16T21:01:33.358Z,4.60
2018-06-16T21:04:02.449Z,4.33
2018-06-16T21:06:31.645Z,5.03
2018-06-16T21:09:00.811Z,4.50
2018-06-16T21:11:30.004Z,4.00
2018-06-16T21:13:59.109Z,5.10
2018-06-16T21:16:28.257Z,5.60
2018-06-16T21:18:57.355Z,4.50
2018-06-16T21:21:26.737Z,4.33
2018-06-16T21:23:55.881Z,6.03
2018-06-16T21:26:25.082Z,4.90
2018-06-16T21:28:54.376Z,4.43
2018-06-16T21:31:23.516Z,7.60
2018-06-16T21:33:52.656Z,4.73
2018-06-16T21:36:22.012Z,4.30
2018-06-16T21:38:51.165Z,5.47
2018-06-16T21:41:20.386Z,4.20
2018-06-16T21:43:49.547Z,4.10
2018-06-16T21:46:18.690Z,5.15
2018-06-16T21:48:47.840Z,5.10
2018-06-16T21:51:17.788Z,6.90
2018-06-16T21:53:46.936Z,4.53
2018-06-16T21:56:16.065Z,4.37
2018-06-16T21:58:45.217Z,4.33
2018-06-16T22:01:14.339Z,3.87
2018-06-16T22:03:43.509Z,4.83
2018-06-16T22:06:12.741Z,5.67
2018-06-16T22:08:42.023Z,4.23
2018-06-16T22:11:11.181Z,6.30
2018-06-16T22:13:40.388Z,4.97
2018-06-16T22:16:09.539Z,4.22
2018-06-16T22:18:38.725Z,6.67
2018-06-16T22:21:07.893Z,3.90
2018-06-16T22:23:37.030Z,4.60
2018-06-16T22:26:06.553Z,4.40
2018-06-16T22:28:35.650Z,5.00
2018-06-16T22:31:23.467Z,4.03
2018-06-16T22:33:52.558Z,4.37
2018-06-16T22:36:22.281Z,5.55
2018-06-16T22:38:51.514Z,7.03
2018-06-16T22:41:20.661Z,6.12
2018-06-16T22:43:49.887Z,4.93
2018-06-16T22:46:19.062Z,12.43
2018-06-16T22:48:48.231Z,4.90
2018-06-16T22:51:17.488Z,6.53
2018-06-16T22:53:46.572Z,3.90
2018-06-16T22:56:15.750Z,4.65
2018-06-16T22:58:44.918Z,4.65
2018-06-16T23:01:14.066Z,4.37
2018-06-16T23:03:43.228Z,5.27
2018-06-16T23:06:12.433Z,7.40
2018-06-16T23:08:41.620Z,5.10
2018-06-16T23:11:10.850Z,5.00
2018-06-16T23:13:39.965Z,5.13
2018-06-16T23:16:09.145Z,4.30
2018-06-16T23:18:38.320Z,4.10
2018-06-16T23:21:07.507Z,6.10
2018-06-16T23:23:36.600Z,4.33
2018-06-16T23:26:06.105Z,4.95
2018-06-16T23:28:35.252Z,6.33
2018-06-16T23:31:04.413Z,3.47
2018-06-16T23:33:33.816Z,6.10
2018-06-16T23:36:03.038Z,5.37
2018-06-16T23:38:32.220Z,4.80
2018-06-16T23:41:01.469Z,3.90
2018-06-16T23:43:30.626Z,9.23
2018-06-16T23:45:59.976Z,6.10
2018-06-16T23:48:29.209Z,8.40
2018-06-16T23:50:58.495Z,5.70
2018-06-16T23:53:27.923Z,5.13
2018-06-16T23:55:57.139Z,4.90
2018-06-16T23:58:27.041Z,6.57
